Time;durP1;ratioP1;P1;durP2;ratioP2;P2;SDS_P1;SDS_P2;PMS_P1;PMS_P2;Temp;Humidity;BMP_temperature;BMP_pressure;BME280_temperature;BME280_humidity;BME280_pressure;Samples;Min_cycle;Max_cycle;Signal;HPM_P1;HPM_P2
2021/09/21 00:10:36;;;;;;;17.12;10.28;;;;;;;12.40;86.26;101046.41;2979241;79;21014;-56
2021/09/21 00:14:39;;;;;;;12.80;11.43;;;;;;;12.31;87.03;101048.95;3043368;78;20947;-56
2021/09/21 00:18:48;;;;;;;13.32;11.15;;;;;;;12.24;88.31;101040.56;3043393;78;20970;-57
2021/09/21 00:22:51;;;;;;;15.50;11.60;;;;;;;12.24;89.03;101038.72;3043334;78;21037;-57
2021/09/21 00:26:52;;;;;;;13.70;10.10;;;;;;;12.30;89.28;101048.08;3042942;78;20919;-57
2021/09/21 00:31:07;;;;;;;17.05;13.15;;;;;;;12.33;89.16;101047.84;3043093;78;20958;-57
2021/09/21 00:35:09;;;;;;;13.88;11.08;;;;;;;12.33;89.10;101046.50;3043098;78;20958;-58
2021/09/21 00:39:13;;;;;;;18.45;12.78;;;;;;;12.35;89.24;101045.90;3043105;78;21017;-57
2021/09/21 00:43:22;;;;;;;14.55;11.25;;;;;;;12.39;89.60;101044.72;3043522;78;21010;-57
2021/09/21 00:47:27;;;;;;;17.27;12.70;;;;;;;12.39;89.47;101047.38;3035437;78;21010;-57
2021/09/21 00:51:29;;;;;;;16.77;11.43;;;;;;;12.42;89.72;101039.60;3043117;78;20966;-58
2021/09/21 00:55:45;;;;;;;15.53;12.90;;;;;;;12.37;89.62;101039.95;3043223;78;20962;-58
2021/09/21 00:59:48;;;;;;;17.30;13.05;;;;;;;12.36;90.18;101044.09;3043101;78;20994;-56
2021/09/21 01:04:08;;;;;;;12.78;10.40;;;;;;;12.35;90.46;101043.73;3015225;78;20935;-59
2021/09/21 01:08:17;;;;;;;13.60;9.78;;;;;;;12.36;90.57;101041.42;3014955;78;21029;-57
2021/09/21 01:12:19;;;;;;;13.13;10.25;;;;;;;12.39;90.24;101044.72;3041886;78;21017;-59
2021/09/21 01:16:41;;;;;;;19.02;11.57;;;;;;;12.36;90.22;101054.27;3042062;78;20993;-59
2021/09/21 01:20:45;;;;;;;19.05;12.70;;;;;;;12.31;90.86;101048.44;3042379;78;21028;-57
2021/09/21 01:24:59;;;;;;;13.98;12.28;;;;;;;12.32;91.13;101042.14;3042110;78;21001;-57
2021/09/21 01:29:02;;;;;;;16.07;12.53;;;;;;;12.35;91.24;101043.23;3042002;78;20954;-57
2021/09/21 01:33:04;;;;;;;17.90;12.58;;;;;;;12.37;91.15;101044.45;3042342;78;20962;-57
2021/09/21 01:37:13;;;;;;;13.68;10.28;;;;;;;12.37;91.41;101048.46;3041835;78;20970;-57
2021/09/21 01:41:17;;;;;;;14.53;11.03;;;;;;;12.38;91.70;101050.16;3042062;78;20998;-57
2021/09/21 01:45:21;;;;;;;16.07;12.20;;;;;;;12.39;91.90;101042.05;3042222;78;21049;-59
2021/09/21 01:49:24;;;;;;;13.78;11.63;;;;;;;12.40;92.03;101038.41;3042051;78;21303;-58
2021/09/21 02:02:08;;;;;;;13.85;10.48;;;;;;;12.46;91.91;101041.56;3042391;78;20998;-57
2021/09/21 02:06:11;;;;;;;14.47;10.80;;;;;;;12.44;92.01;101041.67;3041826;78;20959;-57
2021/09/21 02:10:23;;;;;;;12.55;10.58;;;;;;;12.37;91.89;101043.95;3042103;78;21002;-57
2021/09/21 02:14:33;;;;;;;11.45;9.85;;;;;;;12.31;92.26;101039.61;3041029;78;21013;-58
2021/09/21 02:18:58;;;;;;;18.92;11.75;;;;;;;12.26;92.24;101046.63;2880205;79;21027;-63
2021/09/21 02:23:00;;;;;;;12.53;11.25;;;;;;;12.18;93.31;101041.88;3019653;78;20987;-65
2021/09/21 02:27:04;;;;;;;15.58;10.15;;;;;;;12.36;93.97;101042.77;3022101;78;21068;-62
2021/09/21 02:31:36;;;;;;;13.08;9.10;;;;;;;12.58;93.63;101045.95;3041981;78;20903;-61
2021/09/21 02:35:39;;;;;;;17.15;10.13;;;;;;;12.75;92.90;101040.60;3042206;77;20935;-61
2021/09/21 02:39:51;;;;;;;13.40;9.90;;;;;;;12.80;91.82;101040.25;3042307;78;20970;-63
2021/09/21 02:43:54;;;;;;;14.55;9.93;;;;;;;12.80;91.79;101035.74;3042339;78;21002;-62
2021/09/21 02:48:09;;;;;;;11.33;10.05;;;;;;;12.95;91.99;101035.50;3042468;77;20982;-61
2021/09/21 02:52:11;;;;;;;14.98;10.28;;;;;;;13.06;90.78;101034.63;3013865;78;20986;-61
2021/09/21 03:01:33;;;;;;;9.18;8.28;;;;;;;12.99;90.59;101037.80;3042237;78;21002;-61
2021/09/21 03:05:40;;;;;;;12.15;9.23;;;;;;;13.10;90.32;101036.08;2996638;78;21192;-60
2021/09/21 03:17:58;;;;;;;17.05;10.38;;;;;;;13.04;90.01;101035.25;2958551;80;21022;-60
2021/09/21 03:21:59;;;;;;;9.78;8.35;;;;;;;13.09;90.16;101040.59;2958130;80;20998;-61
2021/09/21 03:26:27;;;;;;;11.22;9.15;;;;;;;13.11;89.18;101043.11;2958709;80;20964;-62
2021/09/21 03:30:29;;;;;;;11.60;8.85;;;;;;;13.11;89.36;101048.45;2958449;80;20990;-61
2021/09/21 03:35:29;;;;;;;16.65;9.58;;;;;;;13.09;89.31;101054.41;2958214;80;21097;-60
2021/09/21 03:39:33;;;;;;;11.12;9.38;;;;;;;13.15;89.79;101057.91;2957868;79;21627;-61
2021/09/21 03:43:35;;;;;;;12.82;8.10;;;;;;;13.25;89.36;101065.56;2958425;80;21003;-61
2021/09/21 03:48:16;;;;;;;11.28;8.68;;;;;;;13.33;89.06;101072.09;2958438;80;20947;-61
2021/09/21 03:52:18;;;;;;;10.00;9.05;;;;;;;13.33;88.55;101081.45;2958578;80;20995;-61
2021/09/21 03:56:21;;;;;;;10.75;8.60;;;;;;;13.35;88.19;101085.70;2958360;80;20970;-61
2021/09/21 04:01:30;;;;;;;17.70;8.98;;;;;;;13.33;87.64;101082.78;2969360;79;21021;-61
2021/09/21 04:05:32;;;;;;;11.25;8.53;;;;;;;13.26;88.44;101086.44;2988844;79;21038;-61
2021/09/21 04:09:34;;;;;;;10.38;8.25;;;;;;;13.25;87.82;101091.41;2989000;78;20994;-61
2021/09/21 04:13:55;;;;;;;10.40;8.73;;;;;;;13.22;88.06;101089.86;2988154;79;20990;-61
2021/09/21 04:17:58;;;;;;;10.95;7.95;;;;;;;13.13;87.72;101085.23;2928217;81;21524;-61
2021/09/21 04:22:27;;;;;;;13.10;8.33;;;;;;;13.13;88.42;101089.24;2935242;81;20994;-62
2021/09/21 04:26:29;;;;;;;13.22;7.62;;;;;;;13.15;88.64;101083.29;2936111;81;21010;-60
2021/09/21 04:30:33;;;;;;;10.23;8.03;;;;;;;13.16;88.42;101085.48;2882110;79;21069;-61
2021/09/21 04:34:55;;;;;;;8.58;7.47;;;;;;;13.14;88.44;101089.61;2895644;81;21001;-61
2021/09/21 04:38:57;;;;;;;9.70;8.63;;;;;;;13.10;88.31;101088.16;2895593;82;20962;-60
2021/09/21 04:42:59;;;;;;;9.63;6.97;;;;;;;13.10;88.50;101093.50;2895476;82;20993;-62
2021/09/21 04:47:01;;;;;;;7.62;6.20;;;;;;;13.12;88.39;101088.88;2895336;82;20945;-65
2021/09/21 04:51:05;;;;;;;10.20;7.85;;;;;;;13.14;88.50;101093.14;2895525;82;20981;-62
2021/09/21 04:55:09;;;;;;;9.83;7.72;;;;;;;13.13;88.27;101093.25;2895857;82;21163;-61
2021/09/21 04:59:12;;;;;;;8.45;7.00;;;;;;;13.11;87.92;101091.19;2895261;82;21439;-61
2021/09/21 05:03:14;;;;;;;10.25;8.93;;;;;;;12.99;88.22;101093.89;2895542;82;20993;-61
2021/09/21 05:08:12;;;;;;;15.32;6.90;;;;;;;12.96;88.93;101101.28;2895429;82;21017;-61
2021/09/21 05:12:15;;;;;;;12.20;7.55;;;;;;;12.98;88.83;101099.34;2964785;80;21034;-71
2021/09/21 05:16:17;;;;;;;13.30;8.23;;;;;;;12.98;88.76;101099.34;2964808;80;21015;-71
2021/09/21 05:20:19;;;;;;;9.18;8.25;;;;;;;12.97;88.54;101097.64;2965244;80;20986;-70
2021/09/21 05:24:21;;;;;;;12.23;6.17;;;;;;;12.95;88.78;101106.27;2965621;80;21057;-70
2021/09/21 05:28:23;;;;;;;10.88;7.75;;;;;;;12.88;88.75;101115.23;2965114;80;21012;-70
2021/09/21 05:32:25;;;;;;;12.20;7.97;;;;;;;12.74;89.27;101112.79;2895032;82;21034;-70
2021/09/21 05:36:27;;;;;;;9.40;7.80;;;;;;;12.65;89.95;101109.88;2895096;80;21034;-70
2021/09/21 05:40:30;;;;;;;11.35;7.22;;;;;;;12.71;90.30;101100.05;2895045;81;21003;-70
2021/09/21 05:44:32;;;;;;;7.70;6.65;;;;;;;12.79;90.53;101107.96;2894711;82;20995;-70
2021/09/21 05:48:34;;;;;;;10.80;7.80;;;;;;;12.94;90.57;101112.08;2894408;82;21094;-70
2021/09/21 05:52:36;;;;;;;9.03;5.78;;;;;;;13.01;90.15;101116.45;2892434;82;20956;-70
2021/09/21 05:56:38;;;;;;;9.98;7.90;;;;;;;13.08;89.64;101123.50;2869171;82;20968;-70
2021/09/21 06:00:40;;;;;;;10.98;7.90;;;;;;;13.08;89.52;101124.36;2868176;82;21047;-70
2021/09/21 06:04:42;;;;;;;10.58;6.97;;;;;;;13.09;89.60;101131.40;2845009;83;21050;-69
2021/09/21 06:08:45;;;;;;;16.80;10.58;;;;;;;13.19;90.43;101127.98;2843703;83;21098;-70
2021/09/21 06:12:47;;;;;;;11.45;10.00;;;;;;;13.25;89.46;101137.70;2832609;82;20992;-69
2021/09/21 06:16:49;;;;;;;14.50;11.38;;;;;;;13.21;89.19;101149.61;2860520;82;20982;-70
2021/09/21 06:20:51;;;;;;;14.55;11.65;;;;;;;13.22;89.48;101151.30;2856266;83;21482;-70
2021/09/21 06:24:52;;;;;;;17.05;11.57;;;;;;;13.32;90.17;101147.41;2856413;83;20987;-69
2021/09/21 06:28:54;;;;;;;16.23;11.25;;;;;;;13.48;89.62;101151.06;2856311;83;20987;-70
2021/09/21 06:32:56;;;;;;;16.82;12.23;;;;;;;13.60;89.12;101154.56;2856249;83;21018;-70
2021/09/21 06:36:59;;;;;;;16.57;12.65;;;;;;;13.55;88.51;101152.25;2856225;83;20995;-70
2021/09/21 06:41:01;;;;;;;18.52;11.35;;;;;;;13.56;89.04;101166.02;2873996;82;21035;-70
2021/09/21 06:45:05;;;;;;;14.60;11.15;;;;;;;13.56;88.74;101152.65;2905824;81;20991;-71
2021/09/21 06:49:07;;;;;;;23.18;12.90;;;;;;;13.62;88.61;101173.16;2905890;81;20998;-72
2021/09/21 06:53:09;;;;;;;13.55;11.15;;;;;;;13.64;87.90;101169.37;2906086;81;20999;-71
2021/09/21 06:57:11;;;;;;;15.05;9.80;;;;;;;13.67;88.30;101169.16;2905762;82;21086;-71
2021/09/21 07:01:13;;;;;;;11.68;10.03;;;;;;;13.76;88.11;101170.70;2897285;82;21007;-70
2021/09/21 07:05:15;;;;;;;10.65;8.65;;;;;;;13.83;87.50;101162.06;2897593;81;21034;-72
2021/09/21 07:09:20;;;;;;;12.88;8.20;;;;;;;13.90;87.33;101173.58;2907088;80;21094;-71
2021/09/21 07:13:22;;;;;;;10.50;9.13;;;;;;;13.86;86.16;101174.34;2937755;79;21074;-71
2021/09/21 07:17:24;;;;;;;13.98;8.50;;;;;;;13.88;86.85;101175.06;2924880;80;21660;-71
2021/09/21 07:21:28;;;;;;;11.22;7.67;;;;;;;13.95;86.96;101182.06;2905235;82;20998;-71
2021/09/21 07:25:32;;;;;;;9.43;7.72;;;;;;;14.02;86.05;101185.09;2909749;79;21038;-71
2021/09/21 07:29:33;;;;;;;12.68;7.90;;;;;;;13.99;86.31;101180.86;2904452;82;21015;-71
2021/09/21 07:33:35;;;;;;;16.15;8.40;;;;;;;13.97;85.53;101188.17;2905462;82;21054;-71
2021/09/21 07:37:37;;;;;;;11.25;9.23;;;;;;;13.96;86.11;101188.64;2905467;82;21034;-71
2021/09/21 07:41:38;;;;;;;15.08;8.20;;;;;;;13.96;85.65;101199.34;2905358;82;20983;-71
2021/09/21 07:45:40;;;;;;;12.98;9.68;;;;;;;13.96;86.24;101203.86;2905824;82;20998;-71
2021/09/21 07:49:43;;;;;;;13.25;8.28;;;;;;;14.00;86.27;101211.48;2905329;80;20963;-71
2021/09/21 07:53:44;;;;;;;10.03;8.78;;;;;;;14.01;84.89;101215.02;2905500;82;21007;-71
2021/09/21 07:57:47;;;;;;;12.10;10.78;;;;;;;14.01;85.17;101220.37;2941518;80;20948;-70
2021/09/21 08:01:49;;;;;;;14.38;9.20;;;;;;;14.05;85.85;101220.47;2955592;80;20995;-70
2021/09/21 08:05:51;;;;;;;9.18;8.25;;;;;;;14.11;84.99;101214.61;2950548;80;20963;-71
2021/09/21 08:09:52;;;;;;;8.80;5.92;;;;;;;14.18;85.24;101218.14;2923257;80;21016;-71
2021/09/21 08:13:54;;;;;;;15.72;9.90;;;;;;;14.30;85.20;101226.47;2918299;81;21525;-70
2021/09/21 08:17:59;;;;;;;16.02;10.15;;;;;;;14.41;84.75;101233.61;2918046;81;30557;-71
2021/09/21 08:22:03;;;;;;;8.93;7.80;;;;;;;14.40;84.17;101240.80;2918023;81;20957;-71
2021/09/21 08:26:05;;;;;;;14.58;10.45;;;;;;;14.48;84.08;101259.38;2918535;81;21039;-71
2021/09/21 08:30:08;;;;;;;16.05;11.25;;;;;;;14.50;83.86;101256.95;2917976;81;21011;-71
2021/09/21 08:34:10;;;;;;;12.47;9.63;;;;;;;14.54;83.97;101251.69;2918671;81;20949;-70
2021/09/21 08:38:11;;;;;;;12.07;9.43;;;;;;;14.61;84.54;101261.41;2918264;81;21004;-71
2021/09/21 08:42:14;;;;;;;12.78;9.60;;;;;;;14.70;84.51;101265.97;2909285;80;20983;-71
2021/09/21 08:46:18;;;;;;;14.28;9.25;;;;;;;14.81;84.30;101269.11;2905904;82;21027;-70
2021/09/21 08:50:21;;;;;;;8.95;7.25;;;;;;;14.86;83.10;101262.04;2905677;82;21008;-70
2021/09/21 08:54:23;;;;;;;13.83;9.93;;;;;;;14.95;83.35;101264.42;2906181;82;20983;-71
2021/09/21 08:58:27;;;;;;;17.00;9.93;;;;;;;14.93;82.48;101269.07;2904677;82;21019;-71
2021/09/21 09:02:30;;;;;;;11.63;8.80;;;;;;;14.88;82.55;101269.45;2906080;82;21027;-70
2021/09/21 09:06:48;;;;;;;9.58;8.25;;;;;;;14.87;83.06;101268.26;2906120;82;20984;-70
2021/09/21 09:10:50;;;;;;;26.35;10.55;;;;;;;14.90;82.95;101268.00;2901502;81;21022;-70
2021/09/21 09:14:52;;;;;;;13.30;8.70;;;;;;;14.91;83.20;101259.81;2895982;82;20992;-70
2021/09/21 09:19:11;;;;;;;14.43;9.23;;;;;;;14.97;83.25;101253.95;2895965;82;20971;-70
2021/09/21 09:23:12;;;;;;;20.08;10.58;;;;;;;15.20;83.33;101251.13;2884146;82;20969;-70
2021/09/21 09:27:14;;;;;;;12.18;8.90;;;;;;;15.38;82.34;101250.51;2897069;81;21058;-70
2021/09/21 09:31:32;;;;;;;14.68;7.22;;;;;;;15.44;82.43;101247.28;2923400;80;20967;-72
2021/09/21 09:35:37;;;;;;;11.70;9.50;;;;;;;15.60;82.17;101251.30;2947542;81;20980;-71
2021/09/21 09:39:42;;;;;;;11.28;8.55;;;;;;;15.64;80.39;101250.91;2944599;80;21058;-70
2021/09/21 09:43:45;;;;;;;11.48;8.90;;;;;;;15.78;81.46;101264.43;2946607;81;21470;-70
2021/09/21 09:47:50;;;;;;;18.23;9.55;;;;;;;15.81;80.41;101249.40;2947191;81;20984;-71
2021/09/21 09:51:56;;;;;;;15.08;9.40;;;;;;;15.87;80.13;101249.83;2942589;80;20987;-70
2021/09/21 09:55:58;;;;;;;10.18;8.45;;;;;;;15.84;79.13;101242.92;2910773;80;21000;-71
2021/09/21 10:00:03;;;;;;;12.37;9.05;;;;;;;15.84;79.85;101249.12;2917253;80;21026;-71
2021/09/21 10:04:05;;;;;;;18.15;9.90;;;;;;;15.88;79.57;101244.34;2928458;79;21023;-72
2021/09/21 10:08:09;;;;;;;13.35;8.80;;;;;;;15.95;79.55;101233.44;2934444;80;21014;-71
2021/09/21 10:12:12;;;;;;;9.35;7.97;;;;;;;15.95;78.79;101240.66;2876289;82;21405;-70
2021/09/21 10:16:14;;;;;;;12.05;7.33;;;;;;;15.97;78.47;101235.48;2867030;82;21054;-71
2021/09/21 10:20:16;;;;;;;15.75;7.95;;;;;;;16.06;79.53;101242.36;2868346;83;21071;-70
2021/09/21 10:24:18;;;;;;;10.40;7.70;;;;;;;16.18;78.03;101237.20;2876287;80;20975;-70
2021/09/21 10:28:21;;;;;;;10.98;7.92;;;;;;;16.35;78.26;101233.00;2883938;80;20965;-70
2021/09/21 10:32:25;;;;;;;7.42;6.58;;;;;;;16.50;78.35;101231.22;2918243;81;21000;-70
2021/09/21 10:36:32;;;;;;;10.93;5.97;;;;;;;16.63;76.98;101225.07;2918364;81;21020;-70
2021/09/21 10:40:41;;;;;;;13.08;7.25;;;;;;;16.78;76.32;101215.23;2917503;80;21075;-70
2021/09/21 10:44:53;;;;;;;9.23;5.72;;;;;;;16.88;75.69;101216.56;2900476;80;20987;-70
2021/09/21 10:49:00;;;;;;;6.70;4.75;;;;;;;17.02;75.40;101215.28;2901439;81;21087;-70
2021/09/21 10:53:06;;;;;;;6.30;5.28;;;;;;;17.22;75.10;101220.95;2877625;80;20969;-70
2021/09/21 10:57:15;;;;;;;14.20;6.22;;;;;;;17.48;74.49;101204.65;2876175;81;21023;-70
2021/09/21 11:01:17;;;;;;;15.20;5.78;;;;;;;17.69;73.89;101212.48;2888875;80;21051;-70
2021/09/21 11:05:26;;;;;;;11.00;5.47;;;;;;;17.78;73.09;101219.64;2887303;80;21008;-70
2021/09/21 11:09:25;;;;;;;7.67;5.55;;;;;;;17.92;72.47;101219.62;2900444;80;20965;-69
2021/09/21 11:13:34;;;;;;;7.03;4.33;;;;;;;17.89;70.64;101221.79;2918644;80;21042;-69
2021/09/21 11:17:37;;;;;;;8.05;5.42;;;;;;;17.93;71.15;101217.27;2934546;79;20956;-69
2021/09/21 11:21:40;;;;;;;9.58;6.78;;;;;;;17.97;71.10;101216.48;2929832;79;21039;-69
2021/09/21 11:25:45;;;;;;;7.85;5.72;;;;;;;17.92;70.65;101218.27;2905241;80;20999;-69
2021/09/21 11:29:47;;;;;;;8.10;5.42;;;;;;;17.79;70.93;101218.64;2924699;79;21003;-69
2021/09/21 11:33:53;;;;;;;10.20;6.20;;;;;;;17.54;70.21;101215.66;2954426;80;20986;-69
2021/09/21 11:37:53;;;;;;;8.58;5.10;;;;;;;17.36;70.56;101216.09;2926415;79;20987;-69
2021/09/21 11:41:56;;;;;;;7.15;4.25;;;;;;;17.20;71.70;101209.50;2931944;80;21032;-69
2021/09/21 11:45:58;;;;;;;5.97;4.30;;;;;;;17.06;71.75;101209.96;2931899;80;20999;-70
2021/09/21 11:50:00;;;;;;;5.17;3.95;;;;;;;17.07;72.66;101221.92;2926355;79;21002;-69
2021/09/21 11:54:05;;;;;;;7.55;4.00;;;;;;;17.10;71.94;101220.80;2903828;76;67903;-59
2021/09/21 11:58:11;;;;;;;9.08;4.30;;;;;;;16.96;72.19;101219.36;2923777;80;21000;-58
2021/09/21 12:02:18;;;;;;;6.95;4.85;;;;;;;16.79;72.91;101226.33;2923177;80;20969;-57
2021/09/21 12:06:35;;;;;;;10.48;4.83;;;;;;;16.58;72.82;101234.06;2923101;80;20977;-56
2021/09/21 12:11:02;;;;;;;7.62;4.35;;;;;;;16.36;73.23;101229.33;2916448;81;20973;-57
2021/09/21 12:15:06;;;;;;;7.72;3.83;;;;;;;16.21;73.83;101233.41;2923298;78;21071;-57
2021/09/21 12:19:19;;;;;;;11.55;5.95;;;;;;;16.07;74.55;101244.89;2922989;78;21040;-58
2021/09/21 12:23:32;;;;;;;6.28;3.65;;;;;;;15.98;75.15;101249.77;2923294;80;21039;-58
2021/09/21 12:27:36;;;;;;;6.87;4.28;;;;;;;15.95;74.92;101239.31;2910177;80;21312;-57
2021/09/21 12:31:39;;;;;;;6.58;4.15;;;;;;;15.97;75.50;101244.05;2909703;82;20937;-58
2021/09/21 12:35:45;;;;;;;6.90;4.33;;;;;;;15.96;76.68;101239.16;2909703;81;21003;-57
2021/09/21 12:39:47;;;;;;;8.25;5.40;;;;;;;16.04;78.00;101233.09;2909880;81;20942;-58
2021/09/21 12:43:55;;;;;;;4.97;4.53;;;;;;;16.09;78.47;101238.89;2910054;82;20958;-57
2021/09/21 12:48:01;;;;;;;10.48;7.55;;;;;;;16.05;77.91;101231.28;2909869;81;20917;-58
2021/09/21 12:52:05;;;;;;;9.70;5.97;;;;;;;16.05;77.93;101235.30;2909929;81;20930;-59
2021/09/21 12:56:17;;;;;;;5.55;3.65;;;;;;;16.03;77.50;101224.70;2914968;81;20979;-57
2021/09/21 13:00:19;;;;;;;5.33;3.70;;;;;;;15.97;78.64;101219.89;2921012;81;21030;-57
2021/09/21 13:04:27;;;;;;;15.50;5.65;;;;;;;15.92;79.47;101222.16;2920777;81;20990;-58
2021/09/21 13:08:30;;;;;;;4.87;3.33;;;;;;;15.97;80.46;101211.84;2920885;79;20990;-59
2021/09/21 13:12:33;;;;;;;6.55;4.80;;;;;;;15.99;79.94;101210.70;2920820;81;20931;-57
2021/09/21 13:16:55;;;;;;;6.35;4.22;;;;;;;16.00;81.30;101204.85;2920930;81;20923;-57
2021/09/21 13:20:58;;;;;;;9.55;5.70;;;;;;;16.05;82.21;101200.42;2920742;78;21025;-59
2021/09/21 13:25:08;;;;;;;9.80;5.58;;;;;;;16.15;82.34;101195.06;2920777;81;20970;-57
2021/09/21 13:29:12;;;;;;;8.30;5.58;;;;;;;16.24;81.93;101198.23;2920732;81;21022;-57
2021/09/21 13:33:20;;;;;;;9.20;4.97;;;;;;;16.26;81.49;101194.91;2921089;81;20968;-57
2021/09/21 13:37:22;;;;;;;6.05;4.28;;;;;;;16.44;80.62;101189.69;2920721;81;20938;-57
2021/09/21 13:41:47;;;;;;;6.35;4.40;;;;;;;16.52;79.59;101187.64;2920808;81;21219;-57
2021/09/21 13:45:49;;;;;;;8.75;5.95;;;;;;;16.58;79.09;101196.45;2920881;81;20982;-57
2021/09/21 13:49:55;;;;;;;8.93;5.17;;;;;;;16.50;78.37;101197.17;2920970;81;20998;-58
2021/09/21 13:53:57;;;;;;;8.83;4.85;;;;;;;16.31;78.07;101205.23;2921060;79;20995;-56
2021/09/21 13:58:00;;;;;;;3.83;3.10;;;;;;;15.74;77.68;101217.41;2948936;80;20985;-57
2021/09/21 14:02:21;;;;;;;9.05;3.58;;;;;;;15.00;78.15;101226.03;2952931;80;21055;-58
2021/09/21 14:06:24;;;;;;;5.22;2.80;;;;;;;14.38;78.75;101225.36;2952910;80;21062;-58
2021/09/21 14:10:29;;;;;;;4.47;3.47;;;;;;;14.00;81.14;101218.67;2951998;80;20989;-58
2021/09/21 14:14:34;;;;;;;5.47;3.70;;;;;;;13.86;83.10;101210.44;2952927;80;20984;-57
2021/09/21 14:18:37;;;;;;;3.60;2.58;;;;;;;13.91;83.59;101191.32;2952855;79;20996;-58
2021/09/21 14:22:39;;;;;;;2.50;2.20;;;;;;;14.08;83.22;101182.77;2952886;80;20964;-58
2021/09/21 14:26:46;;;;;;;3.05;2.52;;;;;;;14.17;81.00;101183.83;2952931;80;21015;-57
2021/09/21 14:30:47;;;;;;;5.25;2.87;;;;;;;14.28;82.17;101187.81;2953227;79;21016;-59
2021/09/21 14:34:54;;;;;;;3.87;2.95;;;;;;;14.37;80.24;101184.86;2953484;80;21024;-57
2021/09/21 14:38:59;;;;;;;5.33;4.17;;;;;;;14.41;79.32;101179.59;2953092;80;21004;-57
2021/09/21 14:43:04;;;;;;;4.83;3.72;;;;;;;14.48;80.77;101183.09;2953099;80;20945;-57
2021/09/21 14:47:07;;;;;;;4.72;4.22;;;;;;;14.56;81.75;101181.97;2953224;80;20937;-59
2021/09/21 14:51:10;;;;;;;5.05;4.35;;;;;;;14.69;82.83;101186.62;2952982;80;20972;-57
2021/09/21 14:55:15;;;;;;;11.73;5.30;;;;;;;14.86;83.27;101183.02;2949057;80;20971;-57
2021/09/21 14:59:17;;;;;;;7.78;5.25;;;;;;;14.92;82.93;101177.13;2921181;81;20986;-58
2021/09/21 15:03:23;;;;;;;5.75;4.67;;;;;;;15.03;83.34;101184.73;2921266;81;20966;-57
2021/09/21 15:07:27;;;;;;;8.05;4.37;;;;;;;15.02;83.57;101175.01;2921076;81;21002;-57
2021/09/21 15:11:31;;;;;;;6.97;5.72;;;;;;;15.03;84.82;101176.70;2920861;81;21046;-58
2021/09/21 15:15:34;;;;;;;9.00;6.75;;;;;;;15.07;85.75;101166.06;2912974;81;20994;-58
2021/09/21 15:19:37;;;;;;;7.62;6.37;;;;;;;15.18;85.61;101172.69;2921098;81;21017;-57
2021/09/21 15:23:40;;;;;;;14.10;6.55;;;;;;;15.28;85.49;101174.91;2920882;81;20955;-57
2021/09/21 15:28:00;;;;;;;12.05;7.30;;;;;;;15.34;84.84;101178.05;2920920;81;20970;-57
2021/09/21 15:32:04;;;;;;;8.33;6.05;;;;;;;15.34;85.21;101174.86;2887775;81;20935;-53
2021/09/21 15:36:13;;;;;;;7.87;7.08;;;;;;;15.35;85.66;101183.77;2861872;83;21017;-47
2021/09/21 15:40:17;;;;;;;7.10;6.17;;;;;;;15.31;84.79;101186.34;2872242;79;20947;-50
2021/09/21 15:44:25;;;;;;;8.00;5.95;;;;;;;15.23;84.63;101191.89;2900176;82;21006;-51
2021/09/21 15:48:25;;;;;;;7.58;6.58;;;;;;;15.23;84.98;101188.34;2899957;82;21002;-47
2021/09/21 15:52:27;;;;;;;11.43;7.60;;;;;;;15.24;85.17;101192.75;2852272;81;21061;-49
2021/09/21 15:56:31;;;;;;;7.40;5.83;;;;;;;15.23;85.53;101195.91;2857255;80;21087;-48
2021/09/21 16:00:37;;;;;;;8.05;6.50;;;;;;;15.22;85.17;101196.89;2927679;80;21015;-51
2021/09/21 16:04:39;;;;;;;8.83;6.95;;;;;;;15.18;85.20;101190.59;2909873;80;20937;-48
2021/09/21 16:08:41;;;;;;;9.28;7.22;;;;;;;15.16;85.36;101188.06;2903494;80;20983;-47
2021/09/21 16:12:57;;;;;;;8.78;6.50;;;;;;;15.18;85.09;101183.41;2899732;82;21102;-51
2021/09/21 16:17:03;;;;;;;8.55;6.72;;;;;;;15.23;84.78;101178.48;2850925;83;21031;-49
2021/09/21 16:21:16;;;;;;;10.25;6.62;;;;;;;15.28;84.71;101176.24;2852361;82;21093;-51
2021/09/21 16:25:19;;;;;;;10.30;7.15;;;;;;;15.32;84.02;101173.29;2880192;82;21038;-49
2021/09/21 16:29:24;;;;;;;10.08;7.00;;;;;;;15.36;83.36;101169.37;2867846;82;21033;-47
2021/09/21 16:33:27;;;;;;;8.85;6.53;;;;;;;15.19;83.53;101166.34;2854247;82;20971;-49
2021/09/21 16:37:36;;;;;;;8.58;7.00;;;;;;;15.10;83.58;101179.19;2883154;81;21038;-47
2021/09/21 16:41:40;;;;;;;11.65;7.75;;;;;;;15.11;84.01;101198.30;2890097;82;20983;-47
2021/09/21 16:45:44;;;;;;;13.05;6.85;;;;;;;15.12;84.01;101198.66;2906857;80;20959;-46
2021/09/21 16:49:46;;;;;;;7.60;6.60;;;;;;;15.10;83.83;101205.52;2863723;81;21246;-52
2021/09/21 16:53:49;;;;;;;10.60;7.80;;;;;;;15.09;83.96;101206.97;2854521;80;20979;-48
2021/09/21 16:58:03;;;;;;;9.68;6.75;;;;;;;15.06;84.13;101209.45;2850688;83;20987;-47
2021/09/21 17:02:09;;;;;;;12.68;8.55;;;;;;;15.04;84.14;101204.72;2869138;81;20983;-48
2021/09/21 17:06:13;;;;;;;10.43;6.08;;;;;;;15.04;84.18;101205.19;2881968;82;20960;-54
2021/09/21 17:10:16;;;;;;;8.33;7.08;;;;;;;14.98;84.25;101196.70;2868413;82;21098;-47
2021/09/21 17:14:18;;;;;;;9.28;7.00;;;;;;;14.83;84.31;101203.37;2896727;80;20975;-52
2021/09/21 17:18:20;;;;;;;8.15;7.12;;;;;;;14.69;85.00;101202.69;2868881;81;20986;-51
2021/09/21 17:22:24;;;;;;;10.78;7.47;;;;;;;14.56;85.78;101204.72;2953820;80;20968;-52
2021/09/21 17:26:28;;;;;;;9.05;7.35;;;;;;;14.50;86.47;101204.75;2916716;79;20987;-56
2021/09/21 17:30:32;;;;;;;8.08;6.97;;;;;;;14.51;86.57;101206.44;2854056;82;20987;-48
2021/09/21 17:34:34;;;;;;;10.13;6.53;;;;;;;14.52;86.52;101198.77;2899227;82;20959;-51
2021/09/21 17:38:36;;;;;;;9.65;7.42;;;;;;;14.56;86.60;101196.69;2884192;82;21050;-52
2021/09/21 17:42:50;;;;;;;12.98;9.13;;;;;;;14.62;86.20;101185.92;2894713;82;20964;-48
2021/09/21 17:46:52;;;;;;;13.10;7.70;;;;;;;14.63;86.09;101189.83;2885984;82;20972;-46
2021/09/21 17:50:56;;;;;;;12.23;8.28;;;;;;;14.70;86.09;101195.52;2889524;81;20951;-52
2021/09/21 17:55:18;;;;;;;13.75;11.00;;;;;;;14.73;85.88;101185.05;2887802;82;20960;-45
2021/09/21 17:59:20;;;;;;;17.10;11.45;;;;;;;14.76;86.00;101183.47;2903103;78;20982;-47
2021/09/21 18:03:23;;;;;;;20.72;11.57;;;;;;;14.79;85.86;101192.58;2938224;80;20997;-50
2021/09/21 18:07:28;;;;;;;9.65;8.65;;;;;;;14.79;85.98;101197.42;2926472;81;20939;-51
2021/09/21 18:11:30;;;;;;;9.85;8.35;;;;;;;14.80;85.96;101192.93;2878739;82;21002;-47
2021/09/21 18:16:00;;;;;;;14.73;8.05;;;;;;;14.80;85.67;101191.59;2886867;79;20997;-48
2021/09/21 18:20:24;;;;;;;9.43;7.75;;;;;;;14.77;85.69;101196.70;2898824;81;21052;-49
2021/09/21 18:24:26;;;;;;;10.43;7.12;;;;;;;14.73;85.86;101200.63;2874094;82;20951;-50
2021/09/21 18:28:29;;;;;;;10.15;6.90;;;;;;;14.71;85.83;101197.24;2861843;80;21357;-48
2021/09/21 18:32:31;;;;;;;9.85;7.30;;;;;;;14.68;86.02;101192.13;2846572;80;21134;-51
2021/09/21 18:36:37;;;;;;;10.63;8.13;;;;;;;14.68;85.82;101182.75;2842019;82;20919;-47
2021/09/21 18:40:41;;;;;;;11.68;7.90;;;;;;;14.66;85.60;101181.53;2893319;81;20936;-53
2021/09/21 18:44:44;;;;;;;8.18;6.70;;;;;;;14.63;85.32;101183.13;2929829;79;20970;-49
2021/09/21 18:48:59;;;;;;;11.12;8.15;;;;;;;14.54;85.29;101181.22;2930005;81;21034;-50
2021/09/21 18:53:01;;;;;;;14.95;7.37;;;;;;;14.45;85.47;101182.87;2886949;81;20970;-47
2021/09/21 18:57:08;;;;;;;9.63;7.08;;;;;;;14.37;85.90;101182.18;2848390;81;21057;-48
2021/09/21 19:01:11;;;;;;;9.65;7.53;;;;;;;14.28;86.45;101192.30;2759291;83;20947;-54
2021/09/21 19:06:14;;;;;;;9.65;7.25;;;;;;;14.19;87.04;101187.73;2812911;80;21027;-55
2021/09/21 19:10:18;;;;;;;9.73;6.83;;;;;;;14.04;88.03;101188.48;2839709;82;21062;-48
2021/09/21 19:14:26;;;;;;;18.87;8.18;;;;;;;13.90;88.73;101186.95;2814093;84;21054;-51
2021/09/21 19:18:33;;;;;;;8.95;7.25;;;;;;;13.84;89.42;101193.64;2819545;84;21098;-51
2021/09/21 19:22:38;;;;;;;10.10;7.95;;;;;;;13.81;89.83;101193.90;2846048;80;20971;-52
2021/09/21 19:26:41;;;;;;;10.82;7.90;;;;;;;13.82;89.88;101195.12;2827012;83;20989;-50